sensor_id;sensor_type;location;lat;lon;timestamp;pressure;altitude;pressure_sealevel;temperature;humidity
48089;BME280;33867;50.314;7.802;2022-12-18T00:00:29;101795.56;;;-7.21;82.70
48089;BME280;33867;50.314;7.802;2022-12-18T00:03:48;101799.00;;;-7.44;82.26
48089;BME280;33867;50.314;7.802;2022-12-18T00:07:08;101792.91;;;-7.24;82.39
48089;BME280;33867;50.314;7.802;2022-12-18T00:10:28;101801.66;;;-7.24;82.66
48089;BME280;33867;50.314;7.802;2022-12-18T00:13:48;101799.88;;;-7.43;82.49
48089;BME280;33867;50.314;7.802;2022-12-18T00:17:08;101803.38;;;-7.27;82.59
48089;BME280;33867;50.314;7.802;2022-12-18T00:20:27;101807.75;;;-7.23;82.54
48089;BME280;33867;50.314;7.802;2022-12-18T00:23:47;101825.19;;;-7.28;83.70
48089;BME280;33867;50.314;7.802;2022-12-18T00:27:07;101810.34;;;-7.40;83.51
48089;BME280;33867;50.314;7.802;2022-12-18T00:30:26;101811.22;;;-7.40;83.50
48089;BME280;33867;50.314;7.802;2022-12-18T00:33:46;101801.66;;;-7.25;83.42
48089;BME280;33867;50.314;7.802;2022-12-18T00:37:05;101798.16;;;-7.27;83.19
48089;BME280;33867;50.314;7.802;2022-12-18T00:40:24;101799.03;;;-7.25;83.04
48089;BME280;33867;50.314;7.802;2022-12-18T00:43:43;101807.75;;;-7.29;82.96
48089;BME280;33867;50.314;7.802;2022-12-18T00:47:02;101807.66;;;-7.57;84.80
48089;BME280;33867;50.314;7.802;2022-12-18T00:50:23;101798.13;;;-7.37;83.99
48089;BME280;33867;50.314;7.802;2022-12-18T00:53:42;101810.41;;;-7.20;83.65
48089;BME280;33867;50.314;7.802;2022-12-18T00:57:01;101821.69;;;-7.30;83.73
48089;BME280;33867;50.314;7.802;2022-12-18T01:00:21;101830.38;;;-7.41;84.16
48089;BME280;33867;50.314;7.802;2022-12-18T01:03:41;101821.66;;;-7.41;82.61
48089;BME280;33867;50.314;7.802;2022-12-18T01:07:00;101807.69;;;-7.48;83.33
48089;BME280;33867;50.314;7.802;2022-12-18T01:10:19;101814.72;;;-7.28;83.40
48089;BME280;33867;50.314;7.802;2022-12-18T01:13:39;101815.53;;;-7.57;81.55
48089;BME280;33867;50.314;7.802;2022-12-18T01:16:59;101827.78;;;-7.39;82.67
48089;BME280;33867;50.314;7.802;2022-12-18T01:20:19;101830.38;;;-7.34;82.97
48089;BME280;33867;50.314;7.802;2022-12-18T01:23:38;101825.16;;;-7.34;82.26
48089;BME280;33867;50.314;7.802;2022-12-18T01:26:57;101835.66;;;-7.30;82.89
48089;BME280;33867;50.314;7.802;2022-12-18T01:30:16;101837.38;;;-7.37;82.36
48089;BME280;33867;50.314;7.802;2022-12-18T01:33:35;101831.31;;;-7.32;82.32
48089;BME280;33867;50.314;7.802;2022-12-18T01:36:54;101819.97;;;-7.27;82.52
48089;BME280;33867;50.314;7.802;2022-12-18T01:40:13;101824.31;;;-7.26;82.87
48089;BME280;33867;50.314;7.802;2022-12-18T01:47:15;101825.16;;;-7.41;84.10
48089;BME280;33867;50.314;7.802;2022-12-18T01:50:39;101825.06;;;-7.60;86.34
48089;BME280;33867;50.314;7.802;2022-12-18T01:53:59;101835.63;;;-7.38;85.77
48089;BME280;33867;50.314;7.802;2022-12-18T01:57:18;101827.84;;;-7.21;85.36
48089;BME280;33867;50.314;7.802;2022-12-18T02:00:38;101831.25;;;-7.39;85.94
48089;BME280;33867;50.314;7.802;2022-12-18T02:04:21;101822.59;;;-7.16;85.42
48089;BME280;33867;50.314;7.802;2022-12-18T02:07:48;101816.50;;;-7.18;85.45
48089;BME280;33867;50.314;7.802;2022-12-18T02:11:39;101821.72;;;-7.12;85.11
48089;BME280;33867;50.314;7.802;2022-12-18T02:18:49;101816.47;;;-7.32;86.10
48089;BME280;33867;50.314;7.802;2022-12-18T02:29:26;101805.06;;;-7.46;86.62
48089;BME280;33867;50.314;7.802;2022-12-18T02:32:53;101812.91;;;-7.57;86.45
48089;BME280;33867;50.314;7.802;2022-12-18T02:36:14;101798.94;;;-7.56;86.94
48089;BME280;33867;50.314;7.802;2022-12-18T02:39:38;101803.16;;;-7.87;86.94
48089;BME280;33867;50.314;7.802;2022-12-18T02:43:11;101807.69;;;-7.54;86.77
48089;BME280;33867;50.314;7.802;2022-12-18T02:46:35;101812.88;;;-7.60;86.25
48089;BME280;33867;50.314;7.802;2022-12-18T02:50:07;101818.19;;;-7.42;86.03
48089;BME280;33867;50.314;7.802;2022-12-18T03:00:51;101812.91;;;-7.48;85.57
48089;BME280;33867;50.314;7.802;2022-12-18T03:04:18;101809.47;;;-7.45;85.43
48089;BME280;33867;50.314;7.802;2022-12-18T03:07:50;101803.28;;;-7.67;85.66
48089;BME280;33867;50.314;7.802;2022-12-18T03:11:13;101802.06;;;-8.27;87.55
48089;BME280;33867;50.314;7.802;2022-12-18T03:14:34;101804.91;;;-7.90;87.20
48089;BME280;33867;50.314;7.802;2022-12-18T03:17:59;101793.69;;;-7.62;86.61
48089;BME280;33867;50.314;7.802;2022-12-18T03:21:28;101799.81;;;-7.57;85.39
48089;BME280;33867;50.314;7.802;2022-12-18T03:24:51;101800.59;;;-7.81;86.89
48089;BME280;33867;50.314;7.802;2022-12-18T03:28:16;101802.41;;;-7.66;86.69
48089;BME280;33867;50.314;7.802;2022-12-18T03:31:37;101811.16;;;-7.52;85.94
48089;BME280;33867;50.314;7.802;2022-12-18T03:35:00;101808.53;;;-7.56;85.21
48089;BME280;33867;50.314;7.802;2022-12-18T03:38:24;101800.69;;;-7.49;84.24
48089;BME280;33867;50.314;7.802;2022-12-18T03:42:01;101794.47;;;-7.84;85.22
48089;BME280;33867;50.314;7.802;2022-12-18T03:45:43;101801.47;;;-7.80;85.26
48089;BME280;33867;50.314;7.802;2022-12-18T03:49:24;101798.88;;;-7.77;84.82
48089;BME280;33867;50.314;7.802;2022-12-18T03:52:54;101791.03;;;-7.76;84.27
48089;BME280;33867;50.314;7.802;2022-12-18T03:56:16;101790.97;;;-7.85;84.53
48089;BME280;33867;50.314;7.802;2022-12-18T03:59:37;101784.00;;;-7.86;84.44
48089;BME280;33867;50.314;7.802;2022-12-18T04:02:58;101778.81;;;-7.81;84.45
48089;BME280;33867;50.314;7.802;2022-12-18T04:06:28;101774.38;;;-7.95;84.21
48089;BME280;33867;50.314;7.802;2022-12-18T04:09:48;101767.41;;;-7.96;85.25
48089;BME280;33867;50.314;7.802;2022-12-18T04:13:10;101769.13;;;-8.01;84.88
48089;BME280;33867;50.314;7.802;2022-12-18T04:16:30;101769.06;;;-8.14;85.39
48089;BME280;33867;50.314;7.802;2022-12-18T04:19:53;101762.09;;;-8.11;85.82
48089;BME280;33867;50.314;7.802;2022-12-18T04:23:13;101762.16;;;-8.02;85.78
48089;BME280;33867;50.314;7.802;2022-12-18T04:26:33;101767.38;;;-8.05;85.32
48089;BME280;33867;50.314;7.802;2022-12-18T04:30:06;101772.63;;;-7.99;85.45
48089;BME280;33867;50.314;7.802;2022-12-18T04:33:25;101779.47;;;-8.19;85.18
48089;BME280;33867;50.314;7.802;2022-12-18T04:36:44;101776.84;;;-8.22;85.79
48089;BME280;33867;50.314;7.802;2022-12-18T04:40:05;101784.69;;;-8.20;85.61
48089;BME280;33867;50.314;7.802;2022-12-18T04:43:32;101791.59;;;-8.39;84.87
48089;BME280;33867;50.314;7.802;2022-12-18T04:46:52;101784.63;;;-8.37;85.23
48089;BME280;33867;50.314;7.802;2022-12-18T04:50:11;101786.09;;;-8.73;84.29
48089;BME280;33867;50.314;7.802;2022-12-18T04:53:30;101780.78;;;-8.83;84.52
48089;BME280;33867;50.314;7.802;2022-12-18T04:56:49;101774.72;;;-8.82;83.89
48089;BME280;33867;50.314;7.802;2022-12-18T05:00:08;101777.25;;;-8.90;84.97
48089;BME280;33867;50.314;7.802;2022-12-18T05:03:28;101787.66;;;-8.93;87.15
48089;BME280;33867;50.314;7.802;2022-12-18T05:06:47;101786.09;;;-8.76;86.23
48089;BME280;33867;50.314;7.802;2022-12-18T05:10:07;101784.28;;;-8.80;84.96
48089;BME280;33867;50.314;7.802;2022-12-18T05:13:27;101796.53;;;-8.76;84.79
48089;BME280;33867;50.314;7.802;2022-12-18T05:16:46;101791.25;;;-8.82;84.78
48089;BME280;33867;50.314;7.802;2022-12-18T05:20:05;101777.31;;;-8.82;84.08
48089;BME280;33867;50.314;7.802;2022-12-18T05:23:25;101778.13;;;-8.90;84.87
48089;BME280;33867;50.314;7.802;2022-12-18T05:26:44;101777.22;;;-8.93;85.37
48089;BME280;33867;50.314;7.802;2022-12-18T05:30:03;101772.00;;;-8.96;84.88
48089;BME280;33867;50.314;7.802;2022-12-18T05:33:24;101776.22;;;-9.10;84.66
48089;BME280;33867;50.314;7.802;2022-12-18T05:36:43;101779.63;;;-9.15;85.00
48089;BME280;33867;50.314;7.802;2022-12-18T05:40:04;101775.34;;;-9.09;85.12
48089;BME280;33867;50.314;7.802;2022-12-18T05:43:24;101773.50;;;-9.23;85.44
48089;BME280;33867;50.314;7.802;2022-12-18T05:46:44;101766.66;;;-9.11;85.45
48089;BME280;33867;50.314;7.802;2022-12-18T05:50:03;101758.84;;;-9.07;85.20
48089;BME280;33867;50.314;7.802;2022-12-18T05:53:22;101770.91;;;-9.18;86.59
48089;BME280;33867;50.314;7.802;2022-12-18T05:56:41;101770.94;;;-9.14;85.82
48089;BME280;33867;50.314;7.802;2022-12-18T06:00:01;101777.09;;;-9.07;85.41
48089;BME280;33867;50.314;7.802;2022-12-18T06:03:20;101772.78;;;-9.02;84.78
48089;BME280;33867;50.314;7.802;2022-12-18T06:06:39;101777.91;;;-9.14;84.89
48089;BME280;33867;50.314;7.802;2022-12-18T06:09:58;101782.22;;;-9.18;85.08
48089;BME280;33867;50.314;7.802;2022-12-18T06:13:19;101783.97;;;-9.17;85.09
48089;BME280;33867;50.314;7.802;2022-12-18T06:16:38;101797.88;;;-9.18;85.07
48089;BME280;33867;50.314;7.802;2022-12-18T06:19:57;101797.78;;;-9.25;84.59
48089;BME280;33867;50.314;7.802;2022-12-18T06:23:16;101800.38;;;-9.27;84.83
48089;BME280;33867;50.314;7.802;2022-12-18T06:26:39;101800.25;;;-9.39;84.98
48089;BME280;33867;50.314;7.802;2022-12-18T06:29:58;101817.72;;;-9.33;85.25
48089;BME280;33867;50.314;7.802;2022-12-18T06:33:17;101816.88;;;-9.28;85.50
48089;BME280;33867;50.314;7.802;2022-12-18T06:36:36;101815.16;;;-9.26;84.90
48089;BME280;33867;50.314;7.802;2022-12-18T06:39:55;101808.03;;;-9.44;83.64
48089;BME280;33867;50.314;7.802;2022-12-18T06:43:15;101811.50;;;-9.46;84.44
48089;BME280;33867;50.314;7.802;2022-12-18T06:46:34;101802.88;;;-9.36;84.52
48089;BME280;33867;50.314;7.802;2022-12-18T06:49:53;101813.16;;;-9.51;84.09
48089;BME280;33867;50.314;7.802;2022-12-18T06:53:12;101807.09;;;-9.49;84.26
48089;BME280;33867;50.314;7.802;2022-12-18T06:56:32;101821.09;;;-9.42;84.44
48089;BME280;33867;50.314;7.802;2022-12-18T06:59:51;101828.97;;;-9.36;84.81
48089;BME280;33867;50.314;7.802;2022-12-18T07:03:10;101825.44;;;-9.41;84.42
48089;BME280;33867;50.314;7.802;2022-12-18T07:06:29;101822.84;;;-9.41;83.90
48089;BME280;33867;50.314;7.802;2022-12-18T07:09:49;101817.31;;;-9.67;83.71
48089;BME280;33867;50.314;7.802;2022-12-18T07:13:08;101806.81;;;-9.73;85.12
48089;BME280;33867;50.314;7.802;2022-12-18T07:16:27;101811.25;;;-9.64;86.08
48089;BME280;33867;50.314;7.802;2022-12-18T07:19:49;101805.06;;;-9.74;86.52
48089;BME280;33867;50.314;7.802;2022-12-18T07:23:08;101805.22;;;-9.60;86.71
48089;BME280;33867;50.314;7.802;2022-12-18T07:26:27;101810.25;;;-9.76;87.14
48089;BME280;33867;50.314;7.802;2022-12-18T07:29:46;101803.44;;;-9.63;87.22
48089;BME280;33867;50.314;7.802;2022-12-18T07:33:05;101806.00;;;-9.70;86.88
48089;BME280;33867;50.314;7.802;2022-12-18T07:36:25;101807.03;;;-9.55;86.95
48089;BME280;33867;50.314;7.802;2022-12-18T07:39:44;101820.09;;;-9.53;87.10
48089;BME280;33867;50.314;7.802;2022-12-18T07:43:03;101829.78;;;-9.40;86.70
48089;BME280;33867;50.314;7.802;2022-12-18T07:46:22;101838.47;;;-9.41;86.28
48089;BME280;33867;50.314;7.802;2022-12-18T07:49:41;101840.38;;;-9.28;86.27
48089;BME280;33867;50.314;7.802;2022-12-18T07:53:01;101839.44;;;-9.33;85.89
48089;BME280;33867;50.314;7.802;2022-12-18T07:56:23;101828.81;;;-9.48;86.39
48089;BME280;33867;50.314;7.802;2022-12-18T07:59:42;101823.38;;;-9.69;87.13
48089;BME280;33867;50.314;7.802;2022-12-18T08:03:01;101816.44;;;-9.69;87.34
48089;BME280;33867;50.314;7.802;2022-12-18T08:06:20;101826.06;;;-9.60;87.24
48089;BME280;33867;50.314;7.802;2022-12-18T08:09:39;101814.75;;;-9.62;87.14
48089;BME280;33867;50.314;7.802;2022-12-18T08:12:59;101825.31;;;-9.53;86.76
48089;BME280;33867;50.314;7.802;2022-12-18T08:16:18;101827.19;;;-9.40;86.58
48089;BME280;33867;50.314;7.802;2022-12-18T08:19:37;101828.19;;;-9.29;87.07
48089;BME280;33867;50.314;7.802;2022-12-18T08:22:56;101829.25;;;-9.11;86.69
48089;BME280;33867;50.314;7.802;2022-12-18T08:26:17;101821.25;;;-9.25;85.98
48089;BME280;33867;50.314;7.802;2022-12-18T08:29:36;101803.81;;;-9.32;86.97
48089;BME280;33867;50.314;7.802;2022-12-18T08:32:55;101789.09;;;-9.24;87.02
48089;BME280;33867;50.314;7.802;2022-12-18T08:36:15;101784.84;;;-9.15;86.68
48089;BME280;33867;50.314;7.802;2022-12-18T08:39:34;101776.09;;;-9.23;86.28
48089;BME280;33867;50.314;7.802;2022-12-18T08:42:53;101771.97;;;-8.99;87.19
48089;BME280;33867;50.314;7.802;2022-12-18T08:46:36;101772.09;;;-8.84;86.77
48089;BME280;33867;50.314;7.802;2022-12-18T08:49:56;101771.31;;;-8.75;86.22
48089;BME280;33867;50.314;7.802;2022-12-18T08:53:15;101767.88;;;-8.65;85.89
48089;BME280;33867;50.314;7.802;2022-12-18T08:56:34;101774.91;;;-8.60;86.04
48089;BME280;33867;50.314;7.802;2022-12-18T08:59:53;101788.03;;;-8.50;85.68
48089;BME280;33867;50.314;7.802;2022-12-18T09:03:17;101791.50;;;-8.48;85.56
48089;BME280;33867;50.314;7.802;2022-12-18T09:06:36;101798.50;;;-8.46;85.87
48089;BME280;33867;50.314;7.802;2022-12-18T09:09:57;101789.03;;;-8.27;86.06
48089;BME280;33867;50.314;7.802;2022-12-18T09:13:17;101783.06;;;-8.02;85.42
48089;BME280;33867;50.314;7.802;2022-12-18T09:16:36;101785.75;;;-7.88;85.18
48089;BME280;33867;50.314;7.802;2022-12-18T09:19:55;101793.66;;;-7.70;84.31
48089;BME280;33867;50.314;7.802;2022-12-18T09:23:14;101780.53;;;-7.83;84.32
48089;BME280;33867;50.314;7.802;2022-12-18T09:26:34;101784.97;;;-7.64;84.65
48089;BME280;33867;50.314;7.802;2022-12-18T09:29:53;101776.28;;;-7.48;84.63
48089;BME280;33867;50.314;7.802;2022-12-18T09:33:12;101780.69;;;-7.34;83.97
48089;BME280;33867;50.314;7.802;2022-12-18T09:36:31;101774.56;;;-7.46;83.63
48089;BME280;33867;50.314;7.802;2022-12-18T09:39:51;101785.94;;;-7.33;84.19
48089;BME280;33867;50.314;7.802;2022-12-18T09:43:28;101794.69;;;-7.22;84.09
48089;BME280;33867;50.314;7.802;2022-12-18T09:53:50;101782.53;;;-6.98;84.43
48089;BME280;33867;50.314;7.802;2022-12-18T09:57:14;101778.16;;;-6.72;84.16
48089;BME280;33867;50.314;7.802;2022-12-18T10:00:34;101767.69;;;-6.61;83.99
48089;BME280;33867;50.314;7.802;2022-12-18T10:03:54;101761.56;;;-6.62;83.34
48089;BME280;33867;50.314;7.802;2022-12-18T10:07:25;101752.81;;;-6.65;82.83
48089;BME280;33867;50.314;7.802;2022-12-18T10:10:54;101762.41;;;-6.44;83.09
48089;BME280;33867;50.314;7.802;2022-12-18T10:18:20;101747.53;;;-6.27;82.88
48089;BME280;33867;50.314;7.802;2022-12-18T10:21:59;101741.41;;;-6.28;82.72
48089;BME280;33867;50.314;7.802;2022-12-18T10:25:30;101740.53;;;-6.28;82.83
48089;BME280;33867;50.314;7.802;2022-12-18T10:28:53;101737.84;;;-6.02;82.86
48089;BME280;33867;50.314;7.802;2022-12-18T10:32:18;101720.25;;;-5.85;82.59
48089;BME280;33867;50.314;7.802;2022-12-18T10:35:40;101720.19;;;-5.73;82.20
48089;BME280;33867;50.314;7.802;2022-12-18T10:39:16;101721.00;;;-5.62;82.22
48089;BME280;33867;50.314;7.802;2022-12-18T10:42:36;101725.31;;;-5.48;81.20
48089;BME280;33867;50.314;7.802;2022-12-18T10:49:30;101704.06;;;-5.12;80.67
48089;BME280;33867;50.314;7.802;2022-12-18T10:53:01;101715.31;;;-4.93;80.65
48089;BME280;33867;50.314;7.802;2022-12-18T10:56:21;101715.22;;;-4.82;80.03
48089;BME280;33867;50.314;7.802;2022-12-18T10:59:54;101705.50;;;-4.74;79.93
48089;BME280;33867;50.314;7.802;2022-12-18T11:03:42;101695.72;;;-4.58;79.88
48089;BME280;33867;50.314;7.802;2022-12-18T11:07:07;101699.91;;;-4.41;80.29
48089;BME280;33867;50.314;7.802;2022-12-18T11:10:35;101694.00;;;-4.64;79.19
48089;BME280;33867;50.314;7.802;2022-12-18T11:14:04;101685.16;;;-4.54;79.52
48089;BME280;33867;50.314;7.802;2022-12-18T11:17:32;101693.75;;;-4.39;80.04
48089;BME280;33867;50.314;7.802;2022-12-18T11:21:21;101695.22;;;-4.16;79.57
48089;BME280;33867;50.314;7.802;2022-12-18T11:24:40;101693.44;;;-4.10;79.52
48089;BME280;33867;50.314;7.802;2022-12-18T11:27:54;101692.63;;;-4.14;78.83
48089;BME280;33867;50.314;7.802;2022-12-18T11:31:18;101691.47;;;-3.93;79.72
48089;BME280;33867;50.314;7.802;2022-12-18T11:34:39;101686.00;;;-3.76;79.23
48089;BME280;33867;50.314;7.802;2022-12-18T11:38:06;101698.38;;;-3.85;79.16
48089;BME280;33867;50.314;7.802;2022-12-18T11:41:34;101696.56;;;-3.81;79.66
48089;BME280;33867;50.314;7.802;2022-12-18T11:48:44;101696.44;;;-3.72;78.32
48089;BME280;33867;50.314;7.802;2022-12-18T11:52:38;101687.66;;;-3.71;79.53
48089;BME280;33867;50.314;7.802;2022-12-18T12:00:10;101667.41;;;-3.64;79.17
48089;BME280;33867;50.314;7.802;2022-12-18T12:03:42;101676.22;;;-3.68;79.88
48089;BME280;33867;50.314;7.802;2022-12-18T12:10:54;101658.34;;;-3.46;79.29
48089;BME280;33867;50.314;7.802;2022-12-18T12:18:29;101672.19;;;-3.31;79.02
48089;BME280;33867;50.314;7.802;2022-12-18T12:25:49;101655.84;;;-3.56;79.24
48089;BME280;33867;50.314;7.802;2022-12-18T12:29:50;101657.78;;;-3.11;79.54
48089;BME280;33867;50.314;7.802;2022-12-18T12:41:05;101661.56;;;-3.26;80.28
48089;BME280;33867;50.314;7.802;2022-12-18T12:44:53;101655.16;;;-3.11;79.75
48089;BME280;33867;50.314;7.802;2022-12-18T12:51:53;101642.50;;;-2.89;80.14
48089;BME280;33867;50.314;7.802;2022-12-18T12:55:28;101639.75;;;-2.83;79.29
48089;BME280;33867;50.314;7.802;2022-12-18T13:02:56;101611.59;;;-2.81;79.62
48089;BME280;33867;50.314;7.802;2022-12-18T13:06:32;101606.34;;;-2.81;79.58
48089;BME280;33867;50.314;7.802;2022-12-18T13:10:22;101600.81;;;-2.68;79.20
48089;BME280;33867;50.314;7.802;2022-12-18T13:13:53;101601.03;;;-2.80;79.38
48089;BME280;33867;50.314;7.802;2022-12-18T13:22:23;101616.56;;;-2.65;79.83
48089;BME280;33867;50.314;7.802;2022-12-18T13:25:43;101608.38;;;-2.96;78.85
48089;BME280;33867;50.314;7.802;2022-12-18T13:29:02;101608.56;;;-3.06;79.55
48089;BME280;33867;50.314;7.802;2022-12-18T13:32:24;101610.72;;;-3.33;79.98
48089;BME280;33867;50.314;7.802;2022-12-18T13:42:38;101602.88;;;-3.34;79.10
48089;BME280;33867;50.314;7.802;2022-12-18T13:46:30;101593.44;;;-3.47;77.87
48089;BME280;33867;50.314;7.802;2022-12-18T13:49:52;101592.44;;;-3.40;78.24
48089;BME280;33867;50.314;7.802;2022-12-18T13:53:21;101594.50;;;-3.61;77.38
48089;BME280;33867;50.314;7.802;2022-12-18T13:56:44;101599.00;;;-3.67;77.81
48089;BME280;33867;50.314;7.802;2022-12-18T14:03:41;101606.22;;;-3.78;79.51
48089;BME280;33867;50.314;7.802;2022-12-18T14:07:26;101607.41;;;-4.04;79.65
48089;BME280;33867;50.314;7.802;2022-12-18T14:10:48;101615.13;;;-3.92;80.76
48089;BME280;33867;50.314;7.802;2022-12-18T14:14:09;101628.41;;;-3.99;80.39
48089;BME280;33867;50.314;7.802;2022-12-18T14:17:28;101620.84;;;-4.24;80.04
48089;BME280;33867;50.314;7.802;2022-12-18T14:20:50;101616.38;;;-4.19;80.96
48089;BME280;33867;50.314;7.802;2022-12-18T14:24:13;101616.38;;;-4.17;81.66
48089;BME280;33867;50.314;7.802;2022-12-18T14:27:37;101617.09;;;-4.06;80.89
48089;BME280;33867;50.314;7.802;2022-12-18T14:30:59;101611.94;;;-4.15;80.86
48089;BME280;33867;50.314;7.802;2022-12-18T14:34:18;101608.41;;;-4.11;81.26
48089;BME280;33867;50.314;7.802;2022-12-18T14:37:37;101610.16;;;-4.12;80.85
48089;BME280;33867;50.314;7.802;2022-12-18T14:41:11;101613.56;;;-4.02;80.98
48089;BME280;33867;50.314;7.802;2022-12-18T14:44:31;101618.84;;;-4.05;80.78
48089;BME280;33867;50.314;7.802;2022-12-18T14:47:50;101611.94;;;-4.12;80.86
48089;BME280;33867;50.314;7.802;2022-12-18T14:54:32;101593.31;;;-3.97;81.48
48089;BME280;33867;50.314;7.802;2022-12-18T15:02:41;101598.06;;;-4.26;81.35
48089;BME280;33867;50.314;7.802;2022-12-18T15:06:15;101595.78;;;-4.54;82.02
48089;BME280;33867;50.314;7.802;2022-12-18T15:09:35;101592.94;;;-4.35;82.23
48089;BME280;33867;50.314;7.802;2022-12-18T15:16:18;101598.78;;;-4.15;82.05
48089;BME280;33867;50.314;7.802;2022-12-18T15:19:40;101597.41;;;-4.42;82.18
48089;BME280;33867;50.314;7.802;2022-12-18T15:23:00;101590.44;;;-4.45;82.13
48089;BME280;33867;50.314;7.802;2022-12-18T15:26:20;101606.91;;;-4.30;82.40
48089;BME280;33867;50.314;7.802;2022-12-18T15:29:40;101596.34;;;-4.27;82.33
48089;BME280;33867;50.314;7.802;2022-12-18T15:33:25;101584.44;;;-4.56;82.19
48089;BME280;33867;50.314;7.802;2022-12-18T15:36:44;101587.28;;;-4.73;82.89
48089;BME280;33867;50.314;7.802;2022-12-18T15:40:04;101595.09;;;-4.68;83.03
48089;BME280;33867;50.314;7.802;2022-12-18T15:43:23;101588.22;;;-4.81;83.29
48089;BME280;33867;50.314;7.802;2022-12-18T15:46:55;101596.03;;;-4.75;82.90
48089;BME280;33867;50.314;7.802;2022-12-18T15:50:14;101599.44;;;-4.67;82.56
48089;BME280;33867;50.314;7.802;2022-12-18T15:53:33;101615.44;;;-4.88;82.70
48089;BME280;33867;50.314;7.802;2022-12-18T15:56:52;101604.06;;;-4.90;83.51
48089;BME280;33867;50.314;7.802;2022-12-18T16:00:39;101605.00;;;-4.93;83.48
48089;BME280;33867;50.314;7.802;2022-12-18T16:03:58;101605.97;;;-5.05;83.30
48089;BME280;33867;50.314;7.802;2022-12-18T16:07:18;101602.38;;;-4.97;83.10
48089;BME280;33867;50.314;7.802;2022-12-18T16:10:37;101603.25;;;-4.94;83.40
48089;BME280;33867;50.314;7.802;2022-12-18T16:13:56;101604.03;;;-4.84;83.27
48089;BME280;33867;50.314;7.802;2022-12-18T16:17:15;101602.53;;;-5.13;83.16
48089;BME280;33867;50.314;7.802;2022-12-18T16:20:34;101599.06;;;-5.15;83.85
48089;BME280;33867;50.314;7.802;2022-12-18T16:23:54;101606.00;;;-5.08;83.64
48089;BME280;33867;50.314;7.802;2022-12-18T16:27:12;101605.06;;;-5.01;83.61
48089;BME280;33867;50.314;7.802;2022-12-18T16:30:32;101599.81;;;-5.02;83.62
48089;BME280;33867;50.314;7.802;2022-12-18T16:34:13;101606.75;;;-4.95;83.39
48089;BME280;33867;50.314;7.802;2022-12-18T16:37:33;101592.00;;;-5.08;84.10
48089;BME280;33867;50.314;7.802;2022-12-18T16:40:52;101595.50;;;-5.11;84.30
48089;BME280;33867;50.314;7.802;2022-12-18T16:44:30;101582.38;;;-5.09;83.66
48089;BME280;33867;50.314;7.802;2022-12-18T16:47:48;101582.31;;;-5.03;83.78
48089;BME280;33867;50.314;7.802;2022-12-18T16:51:08;101568.28;;;-5.01;83.69
48089;BME280;33867;50.314;7.802;2022-12-18T16:54:27;101575.38;;;-5.10;83.90
48089;BME280;33867;50.314;7.802;2022-12-18T16:57:48;101571.00;;;-5.07;84.48
48089;BME280;33867;50.314;7.802;2022-12-18T17:01:09;101563.75;;;-4.86;83.88
48089;BME280;33867;50.314;7.802;2022-12-18T17:04:28;101562.00;;;-4.84;83.83
48089;BME280;33867;50.314;7.802;2022-12-18T17:07:47;101561.00;;;-4.76;84.13
48089;BME280;33867;50.314;7.802;2022-12-18T17:11:06;101553.19;;;-4.80;84.07
48089;BME280;33867;50.314;7.802;2022-12-18T17:14:26;101559.09;;;-4.63;83.42
48089;BME280;33867;50.314;7.802;2022-12-18T17:17:45;101549.66;;;-4.79;84.04
48089;BME280;33867;50.314;7.802;2022-12-18T17:21:05;101547.97;;;-4.83;84.23
48089;BME280;33867;50.314;7.802;2022-12-18T17:24:27;101552.09;;;-4.64;83.62
48089;BME280;33867;50.314;7.802;2022-12-18T17:27:46;101554.88;;;-4.73;84.17
48089;BME280;33867;50.314;7.802;2022-12-18T17:31:19;101551.19;;;-4.60;83.73
48089;BME280;33867;50.314;7.802;2022-12-18T17:34:39;101551.97;;;-4.52;83.52
48089;BME280;33867;50.314;7.802;2022-12-18T17:37:58;101547.63;;;-4.56;83.75
48089;BME280;33867;50.314;7.802;2022-12-18T17:41:18;101552.94;;;-4.62;83.51
48089;BME280;33867;50.314;7.802;2022-12-18T17:44:37;101540.72;;;-4.61;83.92
48089;BME280;33867;50.314;7.802;2022-12-18T17:47:56;101537.09;;;-4.54;83.96
48089;BME280;33867;50.314;7.802;2022-12-18T17:51:15;101546.81;;;-4.59;83.85
48089;BME280;33867;50.314;7.802;2022-12-18T17:54:35;101549.53;;;-4.67;84.13
48089;BME280;33867;50.314;7.802;2022-12-18T17:57:57;101549.63;;;-4.76;84.23
48089;BME280;33867;50.314;7.802;2022-12-18T18:01:22;101552.22;;;-4.75;84.23
48089;BME280;33867;50.314;7.802;2022-12-18T18:04:41;101548.59;;;-4.64;84.23
48089;BME280;33867;50.314;7.802;2022-12-18T18:08:00;101549.63;;;-4.76;84.73
48089;BME280;33867;50.314;7.802;2022-12-18T18:11:21;101538.22;;;-4.72;84.54
48089;BME280;33867;50.314;7.802;2022-12-18T18:15:00;101532.97;;;-4.75;84.83
48089;BME280;33867;50.314;7.802;2022-12-18T18:18:19;101523.09;;;-4.55;84.25
48089;BME280;33867;50.314;7.802;2022-12-18T18:21:40;101527.41;;;-4.49;83.98
48089;BME280;33867;50.314;7.802;2022-12-18T18:24:59;101526.53;;;-4.51;84.09
48089;BME280;33867;50.314;7.802;2022-12-18T18:28:18;101524.72;;;-4.45;83.86
48089;BME280;33867;50.314;7.802;2022-12-18T18:31:37;101520.47;;;-4.55;84.09
48089;BME280;33867;50.314;7.802;2022-12-18T18:34:56;101513.41;;;-4.51;84.50
48089;BME280;33867;50.314;7.802;2022-12-18T18:38:15;101508.16;;;-4.53;84.38
48089;BME280;33867;50.314;7.802;2022-12-18T18:41:34;101502.06;;;-4.55;84.46
48089;BME280;33867;50.314;7.802;2022-12-18T18:44:53;101492.50;;;-4.62;84.87
48089;BME280;33867;50.314;7.802;2022-12-18T18:48:12;101476.75;;;-4.62;85.31
48089;BME280;33867;50.314;7.802;2022-12-18T18:51:32;101482.91;;;-4.63;85.44
48089;BME280;33867;50.314;7.802;2022-12-18T18:54:51;101472.38;;;-4.61;85.12
48089;BME280;33867;50.314;7.802;2022-12-18T18:58:12;101470.47;;;-4.50;85.28
48089;BME280;33867;50.314;7.802;2022-12-18T19:01:31;101466.03;;;-4.45;85.03
48089;BME280;33867;50.314;7.802;2022-12-18T19:04:51;101465.97;;;-4.42;85.02
48089;BME280;33867;50.314;7.802;2022-12-18T19:08:10;101471.25;;;-4.44;84.84
48089;BME280;33867;50.314;7.802;2022-12-18T19:11:30;101468.50;;;-4.34;84.88
48089;BME280;33867;50.314;7.802;2022-12-18T19:15:08;101465.19;;;-4.47;85.25
48089;BME280;33867;50.314;7.802;2022-12-18T19:18:28;101464.31;;;-4.48;85.62